sensor_id;sensor_type;location;lat;lon;timestamp;pressure;altitude;pressure_sealevel;temperature;humidity
73245;BME280;61460;41.158;-73.238;2022-10-31T00:01:09;102051.15;;;23.46;40.16
73245;BME280;61460;41.158;-73.238;2022-10-31T00:03:33;102054.37;;;23.50;39.72
73245;BME280;61460;41.158;-73.238;2022-10-31T00:06:03;102054.65;;;23.38;39.91
73245;BME280;61460;41.158;-73.238;2022-10-31T00:08:33;102054.99;;;23.37;39.68
73245;BME280;61460;41.158;-73.238;2022-10-31T00:11:07;102057.01;;;23.40;39.53
73245;BME280;61460;41.158;-73.238;2022-10-31T00:13:34;102059.46;;;23.33;39.57
73245;BME280;61460;41.158;-73.238;2022-10-31T00:16:12;102065.92;;;23.33;40.23
73245;BME280;61460;41.158;-73.238;2022-10-31T00:18:34;102068.36;;;23.33;39.32
73245;BME280;61460;41.158;-73.238;2022-10-31T00:21:05;102058.60;;;23.24;39.41
73245;BME280;61460;41.158;-73.238;2022-10-31T00:23:35;102065.16;;;23.36;40.32
73245;BME280;61460;41.158;-73.238;2022-10-31T00:26:06;102061.83;;;23.31;40.79
73245;BME280;61460;41.158;-73.238;2022-10-31T00:28:36;102067.07;;;23.37;41.16
73245;BME280;61460;41.158;-73.238;2022-10-31T00:31:09;102071.65;;;23.35;41.16
73245;BME280;61460;41.158;-73.238;2022-10-31T00:33:38;102065.16;;;23.71;40.48
73245;BME280;61460;41.158;-73.238;2022-10-31T00:36:11;102060.09;;;23.83;40.30
73245;BME280;61460;41.158;-73.238;2022-10-31T00:38:39;102055.64;;;23.91;40.10
73245;BME280;61460;41.158;-73.238;2022-10-31T00:41:09;102050.36;;;23.99;39.93
73245;BME280;61460;41.158;-73.238;2022-10-31T00:43:39;102044.57;;;24.02;39.68
73245;BME280;61460;41.158;-73.238;2022-10-31T00:46:10;102052.00;;;23.94;39.52
73245;BME280;61460;41.158;-73.238;2022-10-31T00:48:40;102051.92;;;24.03;39.39
73245;BME280;61460;41.158;-73.238;2022-10-31T00:51:11;102053.76;;;23.98;39.49
73245;BME280;61460;41.158;-73.238;2022-10-31T00:53:41;102054.62;;;24.03;39.79
73245;BME280;61460;41.158;-73.238;2022-10-31T00:56:12;102050.04;;;24.06;39.58
73245;BME280;61460;41.158;-73.238;2022-10-31T00:58:42;102054.31;;;24.10;39.23
73245;BME280;61460;41.158;-73.238;2022-10-31T01:01:12;102048.88;;;24.06;39.26
73245;BME280;61460;41.158;-73.238;2022-10-31T01:03:42;102046.90;;;24.08;38.85
73245;BME280;61460;41.158;-73.238;2022-10-31T01:06:13;102048.97;;;24.08;38.70
73245;BME280;61460;41.158;-73.238;2022-10-31T01:08:43;102049.40;;;23.90;37.94
73245;BME280;61460;41.158;-73.238;2022-10-31T01:11:16;102044.02;;;23.55;38.82
73245;BME280;61460;41.158;-73.238;2022-10-31T01:13:45;102046.38;;;23.33;38.86
73245;BME280;61460;41.158;-73.238;2022-10-31T01:16:18;102047.37;;;23.24;39.03
73245;BME280;61460;41.158;-73.238;2022-10-31T01:18:45;102043.92;;;23.18;38.57
73245;BME280;61460;41.158;-73.238;2022-10-31T01:21:17;102040.26;;;23.00;39.72
73245;BME280;61460;41.158;-73.238;2022-10-31T01:23:45;102044.01;;;22.93;39.59
73245;BME280;61460;41.158;-73.238;2022-10-31T01:26:17;102043.93;;;22.97;39.88
73245;BME280;61460;41.158;-73.238;2022-10-31T01:28:47;102040.92;;;23.03;39.89
73245;BME280;61460;41.158;-73.238;2022-10-31T01:31:18;102038.02;;;23.03;39.61
73245;BME280;61460;41.158;-73.238;2022-10-31T01:33:47;102033.94;;;23.03;39.21
73245;BME280;61460;41.158;-73.238;2022-10-31T01:36:19;102042.98;;;22.99;38.91
73245;BME280;61460;41.158;-73.238;2022-10-31T01:38:49;102048.74;;;22.93;38.88
73245;BME280;61460;41.158;-73.238;2022-10-31T01:41:20;102052.11;;;23.04;39.89
73245;BME280;61460;41.158;-73.238;2022-10-31T01:43:52;102051.58;;;22.81;40.80
73245;BME280;61460;41.158;-73.238;2022-10-31T01:46:23;102052.85;;;22.75;41.24
73245;BME280;61460;41.158;-73.238;2022-10-31T01:48:51;102051.62;;;22.77;41.53
73245;BME280;61460;41.158;-73.238;2022-10-31T01:51:25;102050.97;;;22.74;41.72
73245;BME280;61460;41.158;-73.238;2022-10-31T01:53:57;102045.79;;;22.79;43.38
73245;BME280;61460;41.158;-73.238;2022-10-31T01:56:23;102048.93;;;22.86;43.51
73245;BME280;61460;41.158;-73.238;2022-10-31T01:58:54;102048.15;;;22.89;44.14
73245;BME280;61460;41.158;-73.238;2022-10-31T02:01:23;102046.57;;;22.88;44.42
73245;BME280;61460;41.158;-73.238;2022-10-31T02:03:55;102044.39;;;22.89;44.72
73245;BME280;61460;41.158;-73.238;2022-10-31T02:06:33;102048.66;;;22.93;44.95
73245;BME280;61460;41.158;-73.238;2022-10-31T02:08:55;102049.85;;;22.93;45.12
73245;BME280;61460;41.158;-73.238;2022-10-31T02:11:27;102053.68;;;22.88;45.28
73245;BME280;61460;41.158;-73.238;2022-10-31T02:13:56;102053.97;;;22.97;45.16
73245;BME280;61460;41.158;-73.238;2022-10-31T02:16:26;102044.73;;;22.86;45.59
73245;BME280;61460;41.158;-73.238;2022-10-31T02:18:57;102044.30;;;22.83;45.66
73245;BME280;61460;41.158;-73.238;2022-10-31T02:21:33;102047.93;;;22.91;45.70
73245;BME280;61460;41.158;-73.238;2022-10-31T02:24:11;102042.15;;;22.86;45.96
73245;BME280;61460;41.158;-73.238;2022-10-31T02:29:10;102050.10;;;22.85;46.35
73245;BME280;61460;41.158;-73.238;2022-10-31T02:31:34;102048.37;;;22.81;46.38
73245;BME280;61460;41.158;-73.238;2022-10-31T02:34:05;102049.94;;;22.92;46.35
73245;BME280;61460;41.158;-73.238;2022-10-31T02:36:38;102046.17;;;22.85;46.65
73245;BME280;61460;41.158;-73.238;2022-10-31T02:39:08;102047.18;;;22.79;46.71
73245;BME280;61460;41.158;-73.238;2022-10-31T02:41:37;102052.52;;;22.81;46.87
73245;BME280;61460;41.158;-73.238;2022-10-31T02:44:07;102053.71;;;22.80;47.02
73245;BME280;61460;41.158;-73.238;2022-10-31T02:46:37;102049.02;;;22.81;47.02
73245;BME280;61460;41.158;-73.238;2022-10-31T02:49:07;102045.48;;;22.80;47.05
73245;BME280;61460;41.158;-73.238;2022-10-31T02:51:34;102043.10;;;22.84;47.02
73245;BME280;61460;41.158;-73.238;2022-10-31T02:54:04;102038.85;;;22.84;46.88
73245;BME280;61460;41.158;-73.238;2022-10-31T02:56:35;102035.86;;;22.81;47.01
73245;BME280;61460;41.158;-73.238;2022-10-31T02:59:05;102036.20;;;22.84;46.91
73245;BME280;61460;41.158;-73.238;2022-10-31T03:01:50;102031.86;;;22.92;46.99
73245;BME280;61460;41.158;-73.238;2022-10-31T03:04:17;102022.83;;;22.77;47.69
73245;BME280;61460;41.158;-73.238;2022-10-31T03:06:43;102021.32;;;22.97;46.78
73245;BME280;61460;41.158;-73.238;2022-10-31T03:09:12;102018.96;;;22.88;46.63
73245;BME280;61460;41.158;-73.238;2022-10-31T03:11:44;102016.44;;;22.85;46.60
73245;BME280;61460;41.158;-73.238;2022-10-31T03:14:12;102014.19;;;22.84;46.70
73245;BME280;61460;41.158;-73.238;2022-10-31T03:16:43;102015.48;;;22.87;46.40
73245;BME280;61460;41.158;-73.238;2022-10-31T03:19:10;102012.72;;;22.88;46.35
73245;BME280;61460;41.158;-73.238;2022-10-31T03:21:42;102009.76;;;22.86;46.10
73245;BME280;61460;41.158;-73.238;2022-10-31T03:24:12;102009.49;;;22.91;46.03
73245;BME280;61460;41.158;-73.238;2022-10-31T03:26:44;102002.47;;;22.90;46.00
73245;BME280;61460;41.158;-73.238;2022-10-31T03:29:14;102002.25;;;22.87;45.71
73245;BME280;61460;41.158;-73.238;2022-10-31T03:31:46;102000.12;;;22.90;45.70
73245;BME280;61460;41.158;-73.238;2022-10-31T03:34:14;101996.32;;;22.85;46.00
73245;BME280;61460;41.158;-73.238;2022-10-31T03:36:45;101998.65;;;22.95;45.65
73245;BME280;61460;41.158;-73.238;2022-10-31T03:39:17;101998.82;;;22.81;46.64
73245;BME280;61460;41.158;-73.238;2022-10-31T03:41:48;101993.57;;;22.93;46.13
73245;BME280;61460;41.158;-73.238;2022-10-31T03:44:19;101993.56;;;22.90;46.09
73245;BME280;61460;41.158;-73.238;2022-10-31T03:46:46;101987.61;;;22.89;46.13
73245;BME280;61460;41.158;-73.238;2022-10-31T03:49:17;101987.15;;;22.94;45.89
73245;BME280;61460;41.158;-73.238;2022-10-31T03:51:52;101987.29;;;22.95;45.79
73245;BME280;61460;41.158;-73.238;2022-10-31T03:54:24;101990.37;;;22.82;46.37
73245;BME280;61460;41.158;-73.238;2022-10-31T03:56:51;101990.61;;;22.97;46.22
73245;BME280;61460;41.158;-73.238;2022-10-31T03:59:24;101986.79;;;22.97;45.96
73245;BME280;61460;41.158;-73.238;2022-10-31T04:01:53;101985.26;;;22.97;45.94
73245;BME280;61460;41.158;-73.238;2022-10-31T04:04:21;101987.64;;;22.99;45.87
73245;BME280;61460;41.158;-73.238;2022-10-31T04:06:52;101984.46;;;22.94;45.61
73245;BME280;61460;41.158;-73.238;2022-10-31T04:09:22;101983.36;;;22.93;45.71
73245;BME280;61460;41.158;-73.238;2022-10-31T04:11:54;101982.66;;;22.88;45.90
73245;BME280;61460;41.158;-73.238;2022-10-31T04:14:24;101980.10;;;22.97;45.41
73245;BME280;61460;41.158;-73.238;2022-10-31T04:16:53;101982.66;;;22.93;45.48
73245;BME280;61460;41.158;-73.238;2022-10-31T04:19:24;101980.26;;;22.90;45.50
73245;BME280;61460;41.158;-73.238;2022-10-31T04:21:54;101980.05;;;22.93;45.69
73245;BME280;61460;41.158;-73.238;2022-10-31T04:24:25;101983.18;;;22.89;45.68
73245;BME280;61460;41.158;-73.238;2022-10-31T04:26:55;101981.42;;;22.93;45.75
73245;BME280;61460;41.158;-73.238;2022-10-31T04:29:26;101976.67;;;22.90;45.51
73245;BME280;61460;41.158;-73.238;2022-10-31T04:31:57;101971.22;;;22.87;45.92
73245;BME280;61460;41.158;-73.238;2022-10-31T04:34:27;101972.85;;;22.89;45.75
73245;BME280;61460;41.158;-73.238;2022-10-31T04:36:58;101972.85;;;22.84;45.80
73245;BME280;61460;41.158;-73.238;2022-10-31T04:39:29;101976.12;;;22.86;45.88
73245;BME280;61460;41.158;-73.238;2022-10-31T04:41:59;101974.24;;;22.90;45.91
73245;BME280;61460;41.158;-73.238;2022-10-31T04:44:30;101973.53;;;22.90;46.08
73245;BME280;61460;41.158;-73.238;2022-10-31T04:47:00;101973.60;;;22.89;46.15
73245;BME280;61460;41.158;-73.238;2022-10-31T04:49:31;101974.15;;;22.88;46.34
73245;BME280;61460;41.158;-73.238;2022-10-31T04:52:02;101975.51;;;22.88;46.43
73245;BME280;61460;41.158;-73.238;2022-10-31T04:54:32;101969.57;;;22.85;46.37
73245;BME280;61460;41.158;-73.238;2022-10-31T04:57:03;101972.72;;;22.82;46.31
73245;BME280;61460;41.158;-73.238;2022-10-31T04:59:33;101974.88;;;22.85;46.64
73245;BME280;61460;41.158;-73.238;2022-10-31T05:02:03;101976.39;;;22.86;46.62
73245;BME280;61460;41.158;-73.238;2022-10-31T05:04:34;101973.56;;;22.81;46.73
73245;BME280;61460;41.158;-73.238;2022-10-31T05:07:05;101967.43;;;22.76;47.04
73245;BME280;61460;41.158;-73.238;2022-10-31T05:09:35;101964.21;;;22.78;47.20
73245;BME280;61460;41.158;-73.238;2022-10-31T05:12:06;101962.85;;;22.76;47.24
73245;BME280;61460;41.158;-73.238;2022-10-31T05:14:37;101960.08;;;22.84;47.39
73245;BME280;61460;41.158;-73.238;2022-10-31T05:17:07;101958.25;;;22.81;47.59
73245;BME280;61460;41.158;-73.238;2022-10-31T05:19:38;101956.74;;;22.78;47.63
73245;BME280;61460;41.158;-73.238;2022-10-31T05:22:08;101952.05;;;22.79;47.21
73245;BME280;61460;41.158;-73.238;2022-10-31T05:24:39;101947.25;;;22.78;47.30
73245;BME280;61460;41.158;-73.238;2022-10-31T05:27:09;101951.26;;;22.76;47.24
73245;BME280;61460;41.158;-73.238;2022-10-31T05:29:40;101956.32;;;22.74;47.31
73245;BME280;61460;41.158;-73.238;2022-10-31T05:32:11;101951.91;;;22.80;47.47
73245;BME280;61460;41.158;-73.238;2022-10-31T05:34:41;101955.15;;;22.89;47.32
73245;BME280;61460;41.158;-73.238;2022-10-31T05:37:12;101952.55;;;22.83;47.57
73245;BME280;61460;41.158;-73.238;2022-10-31T05:39:43;101952.22;;;22.84;47.37
73245;BME280;61460;41.158;-73.238;2022-10-31T05:42:13;101947.14;;;22.27;48.91
73245;BME280;61460;41.158;-73.238;2022-10-31T05:44:44;101948.02;;;22.34;48.48
73245;BME280;61460;41.158;-73.238;2022-10-31T05:47:14;101947.93;;;22.35;48.66
73245;BME280;61460;41.158;-73.238;2022-10-31T05:49:45;101943.83;;;22.58;47.94
73245;BME280;61460;41.158;-73.238;2022-10-31T05:52:15;101931.90;;;22.64;47.89
73245;BME280;61460;41.158;-73.238;2022-10-31T05:54:46;101929.96;;;22.70;47.71
73245;BME280;61460;41.158;-73.238;2022-10-31T05:57:17;101931.54;;;22.72;47.74
73245;BME280;61460;41.158;-73.238;2022-10-31T05:59:47;101932.45;;;22.81;47.47
73245;BME280;61460;41.158;-73.238;2022-10-31T06:02:18;101927.86;;;22.91;47.07
73245;BME280;61460;41.158;-73.238;2022-10-31T06:04:49;101933.61;;;22.95;47.17
73245;BME280;61460;41.158;-73.238;2022-10-31T06:07:19;101933.90;;;22.88;47.64
73245;BME280;61460;41.158;-73.238;2022-10-31T06:09:50;101925.61;;;22.88;47.71
73245;BME280;61460;41.158;-73.238;2022-10-31T06:12:20;101920.04;;;22.94;47.30
73245;BME280;61460;41.158;-73.238;2022-10-31T06:14:51;101925.44;;;22.96;47.28
73245;BME280;61460;41.158;-73.238;2022-10-31T06:17:22;101926.16;;;22.80;47.63
73245;BME280;61460;41.158;-73.238;2022-10-31T06:19:52;101925.84;;;22.76;47.80
73245;BME280;61460;41.158;-73.238;2022-10-31T06:22:23;101923.27;;;22.76;48.13
73245;BME280;61460;41.158;-73.238;2022-10-31T06:24:54;101921.14;;;22.82;48.15
73245;BME280;61460;41.158;-73.238;2022-10-31T06:27:25;101918.93;;;22.80;48.09
73245;BME280;61460;41.158;-73.238;2022-10-31T06:29:55;101916.28;;;22.81;48.32
73245;BME280;61460;41.158;-73.238;2022-10-31T06:32:26;101910.92;;;22.78;48.41
73245;BME280;61460;41.158;-73.238;2022-10-31T06:34:56;101906.02;;;22.82;48.34
73245;BME280;61460;41.158;-73.238;2022-10-31T06:37:27;101898.83;;;22.74;48.24
73245;BME280;61460;41.158;-73.238;2022-10-31T06:39:57;101899.16;;;22.24;49.78
73245;BME280;61460;41.158;-73.238;2022-10-31T06:42:28;101903.34;;;22.26;49.03
73245;BME280;61460;41.158;-73.238;2022-10-31T06:44:59;101903.32;;;22.57;48.44
73245;BME280;61460;41.158;-73.238;2022-10-31T06:47:29;101906.86;;;22.63;48.39
73245;BME280;61460;41.158;-73.238;2022-10-31T06:50:00;101907.54;;;22.74;48.17
73245;BME280;61460;41.158;-73.238;2022-10-31T06:52:31;101917.12;;;22.59;48.65
73245;BME280;61460;41.158;-73.238;2022-10-31T06:55:01;101908.45;;;22.71;48.24
73245;BME280;61460;41.158;-73.238;2022-10-31T06:57:32;101909.57;;;22.92;47.80
73245;BME280;61460;41.158;-73.238;2022-10-31T07:00:03;101909.61;;;22.85;47.81
73245;BME280;61460;41.158;-73.238;2022-10-31T07:02:33;101915.37;;;22.90;47.88
73245;BME280;61460;41.158;-73.238;2022-10-31T07:05:05;101912.26;;;22.85;48.08
73245;BME280;61460;41.158;-73.238;2022-10-31T07:07:34;101916.37;;;22.78;48.18
73245;BME280;61460;41.158;-73.238;2022-10-31T07:10:05;101911.68;;;22.86;48.13
73245;BME280;61460;41.158;-73.238;2022-10-31T07:12:36;101903.81;;;22.89;47.84
73245;BME280;61460;41.158;-73.238;2022-10-31T07:15:07;101897.36;;;22.35;49.51
73245;BME280;61460;41.158;-73.238;2022-10-31T07:17:37;101897.49;;;22.40;49.34
73245;BME280;61460;41.158;-73.238;2022-10-31T07:20:09;101888.29;;;22.63;48.43
73245;BME280;61460;41.158;-73.238;2022-10-31T07:22:38;101894.82;;;22.65;48.41
73245;BME280;61460;41.158;-73.238;2022-10-31T07:25:09;101884.15;;;22.66;48.02
73245;BME280;61460;41.158;-73.238;2022-10-31T07:27:40;101878.40;;;22.69;48.24
73245;BME280;61460;41.158;-73.238;2022-10-31T07:30:12;101879.38;;;22.71;48.37
73245;BME280;61460;41.158;-73.238;2022-10-31T07:32:42;101870.27;;;22.72;48.15
73245;BME280;61460;41.158;-73.238;2022-10-31T07:35:13;101863.13;;;22.81;48.30
73245;BME280;61460;41.158;-73.238;2022-10-31T07:37:42;101863.26;;;22.83;48.20
73245;BME280;61460;41.158;-73.238;2022-10-31T07:40:13;101853.77;;;22.81;48.01
73245;BME280;61460;41.158;-73.238;2022-10-31T07:42:46;101856.45;;;22.75;48.20
73245;BME280;61460;41.158;-73.238;2022-10-31T07:45:15;101856.08;;;22.36;49.27
73245;BME280;61460;41.158;-73.238;2022-10-31T07:47:45;101850.86;;;22.37;49.23
73245;BME280;61460;41.158;-73.238;2022-10-31T07:50:16;101843.25;;;22.50;48.28
73245;BME280;61460;41.158;-73.238;2022-10-31T07:52:46;101841.06;;;22.60;48.30
73245;BME280;61460;41.158;-73.238;2022-10-31T07:55:16;101848.70;;;22.58;48.25
73245;BME280;61460;41.158;-73.238;2022-10-31T07:57:55;101851.28;;;22.57;48.43
73245;BME280;61460;41.158;-73.238;2022-10-31T08:00:18;101849.43;;;22.64;48.26
73245;BME280;61460;41.158;-73.238;2022-10-31T08:02:48;101850.33;;;22.66;48.39
73245;BME280;61460;41.158;-73.238;2022-10-31T08:05:19;101847.79;;;22.56;48.46
73245;BME280;61460;41.158;-73.238;2022-10-31T08:07:49;101847.44;;;22.64;48.59
73245;BME280;61460;41.158;-73.238;2022-10-31T08:10:20;101849.80;;;22.57;48.55
73245;BME280;61460;41.158;-73.238;2022-10-31T08:12:55;101847.73;;;22.66;48.36
73245;BME280;61460;41.158;-73.238;2022-10-31T08:15:21;101854.95;;;22.31;49.50
73245;BME280;61460;41.158;-73.238;2022-10-31T08:17:52;101848.53;;;22.37;49.04
73245;BME280;61460;41.158;-73.238;2022-10-31T08:20:23;101848.91;;;22.51;48.72
73245;BME280;61460;41.158;-73.238;2022-10-31T08:22:55;101846.93;;;22.45;48.82
73245;BME280;61460;41.158;-73.238;2022-10-31T08:25:25;101845.77;;;22.44;48.81
73245;BME280;61460;41.158;-73.238;2022-10-31T08:27:55;101848.21;;;22.55;48.84
73245;BME280;61460;41.158;-73.238;2022-10-31T08:30:28;101844.39;;;22.57;48.54
73245;BME280;61460;41.158;-73.238;2022-10-31T08:33:01;101850.27;;;22.54;48.86
73245;BME280;61460;41.158;-73.238;2022-10-31T08:35:26;101844.23;;;22.57;48.73
73245;BME280;61460;41.158;-73.238;2022-10-31T08:37:58;101835.57;;;22.61;48.73
73245;BME280;61460;41.158;-73.238;2022-10-31T08:40:29;101840.67;;;22.64;48.85
73245;BME280;61460;41.158;-73.238;2022-10-31T08:43:00;101837.41;;;22.36;49.19
73245;BME280;61460;41.158;-73.238;2022-10-31T08:45:30;101837.04;;;22.21;49.66
73245;BME280;61460;41.158;-73.238;2022-10-31T08:48:01;101835.76;;;22.40;49.24
73245;BME280;61460;41.158;-73.238;2022-10-31T08:50:32;101845.21;;;22.59;48.74
73245;BME280;61460;41.158;-73.238;2022-10-31T08:53:02;101836.92;;;22.54;48.93
73245;BME280;61460;41.158;-73.238;2022-10-31T08:55:33;101830.09;;;22.58;48.78
73245;BME280;61460;41.158;-73.238;2022-10-31T08:58:03;101830.69;;;22.46;49.22
73245;BME280;61460;41.158;-73.238;2022-10-31T09:00:33;101827.88;;;22.49;49.24
73245;BME280;61460;41.158;-73.238;2022-10-31T09:03:08;101823.95;;;22.50;49.12
73245;BME280;61460;41.158;-73.238;2022-10-31T09:05:34;101832.79;;;22.50;49.08
73245;BME280;61460;41.158;-73.238;2022-10-31T09:08:05;101829.31;;;22.47;49.32
73245;BME280;61460;41.158;-73.238;2022-10-31T09:10:36;101833.58;;;22.42;49.25
73245;BME280;61460;41.158;-73.238;2022-10-31T09:13:09;101836.47;;;22.24;49.92
73245;BME280;61460;41.158;-73.238;2022-10-31T09:15:39;101832.36;;;22.22;49.69
73245;BME280;61460;41.158;-73.238;2022-10-31T09:18:08;101831.49;;;22.51;48.89
73245;BME280;61460;41.158;-73.238;2022-10-31T09:20:40;101828.78;;;22.56;48.84
73245;BME280;61460;41.158;-73.238;2022-10-31T09:23:11;101822.74;;;22.49;49.09
73245;BME280;61460;41.158;-73.238;2022-10-31T09:25:39;101825.99;;;22.60;48.97
73245;BME280;61460;41.158;-73.238;2022-10-31T09:28:11;101824.29;;;22.51;49.18
73245;BME280;61460;41.158;-73.238;2022-10-31T09:30:40;101818.65;;;22.46;49.43
73245;BME280;61460;41.158;-73.238;2022-10-31T09:33:12;101822.84;;;22.42;49.74
73245;BME280;61460;41.158;-73.238;2022-10-31T09:35:42;101821.23;;;22.49;49.27
73245;BME280;61460;41.158;-73.238;2022-10-31T09:38:14;101823.80;;;22.26;49.59
73245;BME280;61460;41.158;-73.238;2022-10-31T09:40:44;101823.76;;;22.14;50.23
73245;BME280;61460;41.158;-73.238;2022-10-31T09:43:17;101814.25;;;22.26;49.85
73245;BME280;61460;41.158;-73.238;2022-10-31T09:45:51;101809.80;;;22.42;49.11
73245;BME280;61460;41.158;-73.238;2022-10-31T09:48:27;101813.69;;;22.51;48.97
73245;BME280;61460;41.158;-73.238;2022-10-31T09:50:48;101810.84;;;22.37;49.26
73245;BME280;61460;41.158;-73.238;2022-10-31T09:53:23;101808.38;;;22.45;49.05
73245;BME280;61460;41.158;-73.238;2022-10-31T09:55:48;101810.25;;;22.49;49.06
73245;BME280;61460;41.158;-73.238;2022-10-31T09:58:20;101807.81;;;22.35;49.30
73245;BME280;61460;41.158;-73.238;2022-10-31T10:00:48;101810.20;;;22.37;49.35
73245;BME280;61460;41.158;-73.238;2022-10-31T10:03:28;101814.88;;;22.31;49.49
73245;BME280;61460;41.158;-73.238;2022-10-31T10:05:53;101812.95;;;22.13;49.31
73245;BME280;61460;41.158;-73.238;2022-10-31T10:08:22;101815.71;;;22.11;49.21
73245;BME280;61460;41.158;-73.238;2022-10-31T10:10:53;101810.68;;;22.14;49.44
73245;BME280;61460;41.158;-73.238;2022-10-31T10:13:32;101806.56;;;22.36;48.83
73245;BME280;61460;41.158;-73.238;2022-10-31T10:16:03;101804.66;;;22.39;48.94
73245;BME280;61460;41.158;-73.238;2022-10-31T10:18:29;101798.83;;;22.36;48.97
73245;BME280;61460;41.158;-73.238;2022-10-31T10:21:03;101797.53;;;22.31;49.30
73245;BME280;61460;41.158;-73.238;2022-10-31T10:23:34;101791.50;;;22.21;49.48
73245;BME280;61460;41.158;-73.238;2022-10-31T10:26:01;101780.85;;;22.32;49.30
73245;BME280;61460;41.158;-73.238;2022-10-31T10:28:28;101780.13;;;22.40;49.16
73245;BME280;61460;41.158;-73.238;2022-10-31T10:30:59;101777.56;;;22.12;49.44
73245;BME280;61460;41.158;-73.238;2022-10-31T10:33:30;101787.29;;;21.76;50.59
73245;BME280;61460;41.158;-73.238;2022-10-31T10:35:59;101790.79;;;21.85;50.62
73245;BME280;61460;41.158;-73.238;2022-10-31T10:38:30;101796.25;;;22.04;49.91
73245;BME280;61460;41.158;-73.238;2022-10-31T10:41:02;101799.07;;;22.20;49.12
73245;BME280;61460;41.158;-73.238;2022-10-31T10:43:32;101795.75;;;22.22;48.89
73245;BME280;61460;41.158;-73.238;2022-10-31T10:48:39;101804.73;;;22.57;48.32
73245;BME280;61460;41.158;-73.238;2022-10-31T10:51:01;101809.98;;;22.58;48.19
73245;BME280;61460;41.158;-73.238;2022-10-31T10:53:42;101814.13;;;22.62;48.10
73245;BME280;61460;41.158;-73.238;2022-10-31T10:56:10;101817.40;;;22.58;48.04
73245;BME280;61460;41.158;-73.238;2022-10-31T10:58:32;101812.57;;;22.58;47.95
73245;BME280;61460;41.158;-73.238;2022-10-31T11:01:10;101806.83;;;22.35;47.74
73245;BME280;61460;41.158;-73.238;2022-10-31T11:03:35;101805.96;;;22.19;48.83
73245;BME280;61460;41.158;-73.238;2022-10-31T11:06:04;101816.27;;;22.27;48.72
73245;BME280;61460;41.158;-73.238;2022-10-31T11:08:36;101821.18;;;22.38;48.61
73245;BME280;61460;41.158;-73.238;2022-10-31T11:11:08;101828.50;;;22.31;50.04
73245;BME280;61460;41.158;-73.238;2022-10-31T11:13:36;101824.45;;;22.37;50.16
73245;BME280;61460;41.158;-73.238;2022-10-31T11:16:08;101816.35;;;22.39;50.37
73245;BME280;61460;41.158;-73.238;2022-10-31T11:18:39;101808.24;;;22.21;50.91
73245;BME280;61460;41.158;-73.238;2022-10-31T11:23:38;101819.88;;;22.36;50.31
73245;BME280;61460;41.158;-73.238;2022-10-31T11:26:18;101826.18;;;22.39;50.13
73245;BME280;61460;41.158;-73.238;2022-10-31T11:28:39;101826.88;;;22.30;49.69
73245;BME280;61460;41.158;-73.238;2022-10-31T11:31:12;101827.04;;;22.14;50.25
73245;BME280;61460;41.158;-73.238;2022-10-31T11:33:46;101823.05;;;22.24;49.44
73245;BME280;61460;41.158;-73.238;2022-10-31T11:36:18;101829.64;;;22.35;49.59
73245;BME280;61460;41.158;-73.238;2022-10-31T11:38:43;101835.70;;;22.61;49.33
73245;BME280;61460;41.158;-73.238;2022-10-31T11:41:15;101833.84;;;22.65;49.54
73245;BME280;61460;41.158;-73.238;2022-10-31T11:43:49;101842.10;;;22.72;49.50
73245;BME280;61460;41.158;-73.238;2022-10-31T11:46:19;101854.06;;;22.76;49.33
73245;BME280;61460;41.158;-73.238;2022-10-31T11:48:48;101858.43;;;22.78;49.49
73245;BME280;61460;41.158;-73.238;2022-10-31T11:51:20;101863.47;;;22.48;50.12
73245;BME280;61460;41.158;-73.238;2022-10-31T11:53:51;101856.54;;;22.42;50.01
73245;BME280;61460;41.158;-73.238;2022-10-31T11:56:17;101851.86;;;22.34;50.08
73245;BME280;61460;41.158;-73.238;2022-10-31T11:58:55;101855.85;;;22.31;49.78
73245;BME280;61460;41.158;-73.238;2022-10-31T12:01:24;101859.55;;;22.31;49.55
73245;BME280;61460;41.158;-73.238;2022-10-31T12:03:57;101865.93;;;22.40;49.07
73245;BME280;61460;41.158;-73.238;2022-10-31T12:06:22;101871.28;;;22.26;49.42
73245;BME280;61460;41.158;-73.238;2022-10-31T12:08:50;101872.27;;;22.32;49.34
73245;BME280;61460;41.158;-73.238;2022-10-31T12:11:34;101877.51;;;22.25;49.63
73245;BME280;61460;41.158;-73.238;2022-10-31T12:14:00;101877.93;;;22.17;49.88
73245;BME280;61460;41.158;-73.238;2022-10-31T12:16:28;101879.06;;;22.22;49.78
73245;BME280;61460;41.158;-73.238;2022-10-31T12:18:58;101875.64;;;22.25;49.80
73245;BME280;61460;41.158;-73.238;2022-10-31T12:21:36;101884.76;;;22.26;49.86
73245;BME280;61460;41.158;-73.238;2022-10-31T12:24:01;101893.24;;;22.27;49.91
73245;BME280;61460;41.158;-73.238;2022-10-31T12:26:30;101891.94;;;22.13;50.00
73245;BME280;61460;41.158;-73.238;2022-10-31T12:29:06;101891.61;;;22.26;49.46
73245;BME280;61460;41.158;-73.238;2022-10-31T12:31:34;101884.48;;;22.30;49.08
73245;BME280;61460;41.158;-73.238;2022-10-31T12:34:15;101882.87;;;22.23;49.18
73245;BME280;61460;41.158;-73.238;2022-10-31T12:36:36;101886.77;;;22.18;49.49
73245;BME280;61460;41.158;-73.238;2022-10-31T12:41:39;101900.12;;;22.17;49.52
73245;BME280;61460;41.158;-73.238;2022-10-31T12:44:05;101898.80;;;22.32;49.11
73245;BME280;61460;41.158;-73.238;2022-10-31T12:46:41;101890.92;;;22.26;49.27
73245;BME280;61460;41.158;-73.238;2022-10-31T12:51:37;101889.92;;;22.37;49.15
73245;BME280;61460;41.158;-73.238;2022-10-31T12:54:15;101883.68;;;22.40;49.30
73245;BME280;61460;41.158;-73.238;2022-10-31T12:56:41;101886.75;;;22.42;49.10
73245;BME280;61460;41.158;-73.238;2022-10-31T12:59:07;101882.54;;;22.55;48.77